sensor_id;sensor_type;location;lat;lon;timestamp;pressure;altitude;pressure_sealevel;temperature;humidity
71239;BME280;61342;51.442;7.370;2023-03-19T00:00:53;99633.78;;;13.28;74.03
71239;BME280;61342;51.442;7.370;2023-03-19T00:01:54;99633.78;;;13.28;74.23
71239;BME280;61342;51.442;7.370;2023-03-19T00:02:55;99635.91;;;13.28;73.94
71239;BME280;61342;51.442;7.370;2023-03-19T00:03:55;99633.03;;;13.28;74.09
71239;BME280;61342;51.442;7.370;2023-03-19T00:04:55;99628.59;;;13.27;73.97
71239;BME280;61342;51.442;7.370;2023-03-19T00:05:56;99627.03;;;13.26;74.06
71239;BME280;61342;51.442;7.370;2023-03-19T00:06:56;99630.13;;;13.28;74.39
71239;BME280;61342;51.442;7.370;2023-03-19T00:07:56;99638.81;;;13.28;74.30
71239;BME280;61342;51.442;7.370;2023-03-19T00:08:57;99635.16;;;13.27;74.44
71239;BME280;61342;51.442;7.370;2023-03-19T00:09:57;99612.56;;;13.19;74.44
71239;BME280;61342;51.442;7.370;2023-03-19T00:10:57;99633.22;;;13.30;74.12
71239;BME280;61342;51.442;7.370;2023-03-19T00:11:58;99626.84;;;13.24;74.02
71239;BME280;61342;51.442;7.370;2023-03-19T00:12:58;99618.75;;;13.23;74.11
71239;BME280;61342;51.442;7.370;2023-03-19T00:13:59;99633.22;;;13.30;74.06
71239;BME280;61342;51.442;7.370;2023-03-19T00:14:59;99633.22;;;13.30;74.45
71239;BME280;61342;51.442;7.370;2023-03-19T00:16:00;99635.56;;;13.31;74.26
71239;BME280;61342;51.442;7.370;2023-03-19T00:17:01;99634.00;;;13.30;74.20
71239;BME280;61342;51.442;7.370;2023-03-19T00:18:01;99628.81;;;13.29;74.31
71239;BME280;61342;51.442;7.370;2023-03-19T00:19:02;99644.00;;;13.29;74.35
71239;BME280;61342;51.442;7.370;2023-03-19T00:20:03;99642.69;;;13.30;74.24
71239;BME280;61342;51.442;7.370;2023-03-19T00:21:04;99636.34;;;13.32;74.28
71239;BME280;61342;51.442;7.370;2023-03-19T00:22:05;99633.69;;;13.34;74.55
71239;BME280;61342;51.442;7.370;2023-03-19T00:23:05;99637.91;;;13.33;74.43
71239;BME280;61342;51.442;7.370;2023-03-19T00:24:06;99638.88;;;13.35;74.51
71239;BME280;61342;51.442;7.370;2023-03-19T00:25:08;99638.31;;;13.37;74.58
71239;BME280;61342;51.442;7.370;2023-03-19T00:26:09;99635.63;;;13.39;75.03
71239;BME280;61342;51.442;7.370;2023-03-19T00:27:10;99640.28;;;13.42;74.50
71239;BME280;61342;51.442;7.370;2023-03-19T00:28:11;99633.72;;;13.41;74.61
71239;BME280;61342;51.442;7.370;2023-03-19T00:29:11;99631.81;;;13.44;74.73
71239;BME280;61342;51.442;7.370;2023-03-19T00:30:12;99631.81;;;13.44;74.88
71239;BME280;61342;51.442;7.370;2023-03-19T00:31:15;99624.72;;;13.45;74.68
71239;BME280;61342;51.442;7.370;2023-03-19T00:32:15;99636.44;;;13.47;74.46
71239;BME280;61342;51.442;7.370;2023-03-19T00:33:16;99629.56;;;13.50;74.75
71239;BME280;61342;51.442;7.370;2023-03-19T00:34:16;99624.56;;;13.50;74.90
71239;BME280;61342;51.442;7.370;2023-03-19T00:35:19;99625.31;;;13.51;74.74
71239;BME280;61342;51.442;7.370;2023-03-19T00:36:20;99624.00;;;13.52;74.39
71239;BME280;61342;51.442;7.370;2023-03-19T00:37:22;99625.53;;;13.53;74.78
71239;BME280;61342;51.442;7.370;2023-03-19T00:38:22;99612.03;;;13.48;74.74
71239;BME280;61342;51.442;7.370;2023-03-19T00:39:23;99608.38;;;13.47;74.40
71239;BME280;61342;51.442;7.370;2023-03-19T00:40:23;99621.53;;;13.56;74.39
71239;BME280;61342;51.442;7.370;2023-03-19T00:41:24;99611.44;;;13.49;74.33
71239;BME280;61342;51.442;7.370;2023-03-19T00:42:24;99618.84;;;13.58;74.58
71239;BME280;61342;51.442;7.370;2023-03-19T00:43:25;99613.06;;;13.58;74.29
71239;BME280;61342;51.442;7.370;2023-03-19T00:44:26;99621.94;;;13.60;74.48
71239;BME280;61342;51.442;7.370;2023-03-19T00:45:26;99613.66;;;13.56;74.12
71239;BME280;61342;51.442;7.370;2023-03-19T00:46:27;99626.94;;;13.59;74.51
71239;BME280;61342;51.442;7.370;2023-03-19T00:47:27;99614.97;;;13.55;74.12
71239;BME280;61342;51.442;7.370;2023-03-19T00:48:27;99628.84;;;13.57;74.29
71239;BME280;61342;51.442;7.370;2023-03-19T00:49:28;99621.31;;;13.54;74.04
71239;BME280;61342;51.442;7.370;2023-03-19T00:50:28;99617.44;;;13.51;74.10
71239;BME280;61342;51.442;7.370;2023-03-19T00:51:28;99632.66;;;13.52;74.65
71239;BME280;61342;51.442;7.370;2023-03-19T00:52:29;99634.00;;;13.51;74.34
71239;BME280;61342;51.442;7.370;2023-03-19T00:53:30;99633.00;;;13.48;74.29
71239;BME280;61342;51.442;7.370;2023-03-19T00:54:32;99625.47;;;13.45;74.42
71239;BME280;61342;51.442;7.370;2023-03-19T00:55:32;99630.25;;;13.43;74.45
71239;BME280;61342;51.442;7.370;2023-03-19T00:56:33;99644.13;;;13.44;74.77
71239;BME280;61342;51.442;7.370;2023-03-19T00:57:33;99624.06;;;13.39;74.56
71239;BME280;61342;51.442;7.370;2023-03-19T00:58:33;99633.31;;;13.37;73.87
71239;BME280;61342;51.442;7.370;2023-03-19T00:59:34;99637.75;;;13.38;74.30
71239;BME280;61342;51.442;7.370;2023-03-19T01:00:35;99639.06;;;13.37;74.38
71239;BME280;61342;51.442;7.370;2023-03-19T01:01:36;99643.09;;;13.34;74.44
71239;BME280;61342;51.442;7.370;2023-03-19T01:02:37;99633.22;;;13.30;74.57
71239;BME280;61342;51.442;7.370;2023-03-19T01:03:37;99645.22;;;13.34;74.38
71239;BME280;61342;51.442;7.370;2023-03-19T01:04:38;99632.69;;;13.31;74.62
71239;BME280;61342;51.442;7.370;2023-03-19T01:05:38;99634.34;;;13.27;74.92
71239;BME280;61342;51.442;7.370;2023-03-19T01:06:38;99639.56;;;13.28;74.78
71239;BME280;61342;51.442;7.370;2023-03-19T01:07:39;99629.91;;;13.26;74.61
71239;BME280;61342;51.442;7.370;2023-03-19T01:08:39;99630.72;;;13.26;74.86
71239;BME280;61342;51.442;7.370;2023-03-19T01:09:40;99632.81;;;13.26;74.76
71239;BME280;61342;51.442;7.370;2023-03-19T01:10:41;99632.81;;;13.26;74.84
71239;BME280;61342;51.442;7.370;2023-03-19T01:11:41;99635.50;;;13.24;74.90
71239;BME280;61342;51.442;7.370;2023-03-19T01:12:44;99638.16;;;13.22;74.96
71239;BME280;61342;51.442;7.370;2023-03-19T01:13:44;99624.44;;;13.15;74.88
71239;BME280;61342;51.442;7.370;2023-03-19T01:14:45;99635.84;;;13.21;74.92
71239;BME280;61342;51.442;7.370;2023-03-19T01:15:46;99624.66;;;13.17;74.77
71239;BME280;61342;51.442;7.370;2023-03-19T01:16:46;99627.75;;;13.19;74.73
71239;BME280;61342;51.442;7.370;2023-03-19T01:17:46;99624.25;;;13.13;74.91
71239;BME280;61342;51.442;7.370;2023-03-19T01:18:47;99630.44;;;13.17;74.87
71239;BME280;61342;51.442;7.370;2023-03-19T01:19:48;99636.41;;;13.19;75.14
71239;BME280;61342;51.442;7.370;2023-03-19T01:20:48;99632.75;;;13.19;74.77
71239;BME280;61342;51.442;7.370;2023-03-19T01:21:48;99624.66;;;13.17;74.96
71239;BME280;61342;51.442;7.370;2023-03-19T01:22:49;99631.75;;;13.16;75.12
71239;BME280;61342;51.442;7.370;2023-03-19T01:23:50;99632.34;;;13.15;74.99
71239;BME280;61342;51.442;7.370;2023-03-19T01:24:53;99627.13;;;13.13;75.15
71239;BME280;61342;51.442;7.370;2023-03-19T01:25:53;99618.47;;;13.13;75.24
71239;BME280;61342;51.442;7.370;2023-03-19T01:26:54;99624.25;;;13.13;75.19
71239;BME280;61342;51.442;7.370;2023-03-19T01:27:54;99622.69;;;13.12;75.42
71239;BME280;61342;51.442;7.370;2023-03-19T01:28:56;99614.38;;;13.09;75.48
71239;BME280;61342;51.442;7.370;2023-03-19T01:29:57;99619.56;;;13.10;75.31
71239;BME280;61342;51.442;7.370;2023-03-19T01:31:04;99621.91;;;13.12;75.42
71239;BME280;61342;51.442;7.370;2023-03-19T01:32:08;99618.81;;;13.10;75.53
71239;BME280;61342;51.442;7.370;2023-03-19T01:33:09;99618.03;;;13.09;75.76
71239;BME280;61342;51.442;7.370;2023-03-19T01:34:12;99616.06;;;13.04;75.89
71239;BME280;61342;51.442;7.370;2023-03-19T01:35:16;99625.34;;;13.10;75.84
71239;BME280;61342;51.442;7.370;2023-03-19T01:36:16;99620.94;;;13.09;76.28
71239;BME280;61342;51.442;7.370;2023-03-19T01:37:17;99626.47;;;13.07;75.79
71239;BME280;61342;51.442;7.370;2023-03-19T01:38:17;99618.72;;;13.02;75.92
71239;BME280;61342;51.442;7.370;2023-03-19T01:39:18;99620.72;;;13.07;76.46
71239;BME280;61342;51.442;7.370;2023-03-19T01:40:19;99626.47;;;13.07;76.02
71239;BME280;61342;51.442;7.370;2023-03-19T01:41:21;99624.91;;;13.06;76.20
71239;BME280;61342;51.442;7.370;2023-03-19T01:42:22;99616.63;;;13.03;76.08
71239;BME280;61342;51.442;7.370;2023-03-19T01:43:24;99623.41;;;13.05;75.74
71239;BME280;61342;51.442;7.370;2023-03-19T01:44:28;99628.38;;;13.05;76.46
71239;BME280;61342;51.442;7.370;2023-03-19T01:45:35;99611.19;;;12.99;75.84
71239;BME280;61342;51.442;7.370;2023-03-19T01:46:37;99622.97;;;13.01;76.38
71239;BME280;61342;51.442;7.370;2023-03-19T01:47:41;99622.75;;;12.99;76.05
71239;BME280;61342;51.442;7.370;2023-03-19T01:48:45;99622.75;;;12.99;76.18
71239;BME280;61342;51.442;7.370;2023-03-19T01:49:52;99627.31;;;12.95;76.30
71239;BME280;61342;51.442;7.370;2023-03-19T01:50:53;99620.19;;;12.96;75.91
71239;BME280;61342;51.442;7.370;2023-03-19T01:51:56;99616.78;;;12.97;76.23
71239;BME280;61342;51.442;7.370;2023-03-19T01:52:58;99619.44;;;12.95;76.29
71239;BME280;61342;51.442;7.370;2023-03-19T01:54:04;99622.88;;;12.94;76.39
71239;BME280;61342;51.442;7.370;2023-03-19T01:55:05;99620.56;;;12.92;76.29
71239;BME280;61342;51.442;7.370;2023-03-19T01:56:20;99617.69;;;12.92;76.07
71239;BME280;61342;51.442;7.370;2023-03-19T01:57:22;99624.00;;;12.91;76.30
71239;BME280;61342;51.442;7.370;2023-03-19T01:58:23;99620.91;;;12.89;76.06
71239;BME280;61342;51.442;7.370;2023-03-19T01:59:28;99611.69;;;12.90;76.01
71239;BME280;61342;51.442;7.370;2023-03-19T02:00:29;99620.91;;;12.89;76.13
71239;BME280;61342;51.442;7.370;2023-03-19T02:01:32;99617.03;;;12.86;76.22
71239;BME280;61342;51.442;7.370;2023-03-19T02:02:35;99606.94;;;12.80;76.23
71239;BME280;61342;51.442;7.370;2023-03-19T02:03:38;99619.69;;;12.84;76.46
71239;BME280;61342;51.442;7.370;2023-03-19T02:04:40;99611.25;;;12.86;76.29
71239;BME280;61342;51.442;7.370;2023-03-19T02:05:43;99613.38;;;12.86;76.48
71239;BME280;61342;51.442;7.370;2023-03-19T02:06:45;99604.47;;;12.84;76.08
71239;BME280;61342;51.442;7.370;2023-03-19T02:07:46;99612.59;;;12.85;76.22
71239;BME280;61342;51.442;7.370;2023-03-19T02:08:47;99617.81;;;12.87;76.23
71239;BME280;61342;51.442;7.370;2023-03-19T02:09:48;99608.16;;;12.84;76.36
71239;BME280;61342;51.442;7.370;2023-03-19T02:10:50;99613.91;;;12.84;76.41
71239;BME280;61342;51.442;7.370;2023-03-19T02:11:52;99614.72;;;12.85;76.53
71239;BME280;61342;51.442;7.370;2023-03-19T02:12:52;99610.25;;;12.84;76.55
71239;BME280;61342;51.442;7.370;2023-03-19T02:13:53;99607.34;;;12.84;76.32
71239;BME280;61342;51.442;7.370;2023-03-19T02:14:53;99616.81;;;12.84;76.48
71239;BME280;61342;51.442;7.370;2023-03-19T02:15:54;99615.25;;;12.83;76.59
71239;BME280;61342;51.442;7.370;2023-03-19T02:16:54;99608.16;;;12.84;76.60
71239;BME280;61342;51.442;7.370;2023-03-19T02:17:55;99621.56;;;12.82;76.71
71239;BME280;61342;51.442;7.370;2023-03-19T02:18:55;99618.13;;;12.83;76.57
71239;BME280;61342;51.442;7.370;2023-03-19T02:20:00;99618.13;;;12.83;76.64
71239;BME280;61342;51.442;7.370;2023-03-19T02:21:09;99611.94;;;12.79;76.56
71239;BME280;61342;51.442;7.370;2023-03-19T02:22:13;99614.06;;;12.79;76.38
71239;BME280;61342;51.442;7.370;2023-03-19T02:23:36;99615.00;;;12.81;76.63
71239;BME280;61342;51.442;7.370;2023-03-19T02:24:47;99603.84;;;12.78;76.88
71239;BME280;61342;51.442;7.370;2023-03-19T02:25:59;99597.28;;;12.77;76.69
71239;BME280;61342;51.442;7.370;2023-03-19T02:27:00;99594.63;;;12.79;76.83
71239;BME280;61342;51.442;7.370;2023-03-19T02:28:01;99600.41;;;12.79;76.98
71239;BME280;61342;51.442;7.370;2023-03-19T02:29:02;99597.72;;;12.81;77.12
71239;BME280;61342;51.442;7.370;2023-03-19T02:30:21;99600.41;;;12.79;77.20
71239;BME280;61342;51.442;7.370;2023-03-19T02:31:22;99600.06;;;12.83;76.87
71239;BME280;61342;51.442;7.370;2023-03-19T02:32:22;99597.19;;;12.83;77.19
71239;BME280;61342;51.442;7.370;2023-03-19T02:33:23;99596.59;;;12.84;77.25
71239;BME280;61342;51.442;7.370;2023-03-19T02:35:24;99599.72;;;12.86;77.31
71239;BME280;61342;51.442;7.370;2023-03-19T02:36:29;99592.06;;;12.89;77.10
71239;BME280;61342;51.442;7.370;2023-03-19T02:37:32;99591.84;;;12.87;77.17
71239;BME280;61342;51.442;7.370;2023-03-19T02:38:33;99603.81;;;12.91;76.79
71239;BME280;61342;51.442;7.370;2023-03-19T02:41:01;99599.81;;;12.94;77.03
71239;BME280;61342;51.442;7.370;2023-03-19T02:42:03;99593.28;;;12.93;76.82
71239;BME280;61342;51.442;7.370;2023-03-19T02:43:05;99602.88;;;12.96;77.05
71239;BME280;61342;51.442;7.370;2023-03-19T02:44:06;99605.44;;;12.99;77.10
71239;BME280;61342;51.442;7.370;2023-03-19T02:45:09;99603.31;;;13.00;77.01
71239;BME280;61342;51.442;7.370;2023-03-19T02:46:11;99604.88;;;13.01;76.81
71239;BME280;61342;51.442;7.370;2023-03-19T02:47:12;99612.97;;;13.02;76.65
71239;BME280;61342;51.442;7.370;2023-03-19T02:48:12;99602.97;;;13.03;76.72
71239;BME280;61342;51.442;7.370;2023-03-19T02:49:13;99604.53;;;13.04;76.58
71239;BME280;61342;51.442;7.370;2023-03-19T02:50:14;99598.75;;;13.04;76.52
71239;BME280;61342;51.442;7.370;2023-03-19T02:51:15;99600.09;;;13.03;76.86
71239;BME280;61342;51.442;7.370;2023-03-19T02:52:16;99598.75;;;13.04;76.76
71239;BME280;61342;51.442;7.370;2023-03-19T02:53:16;99605.84;;;13.03;76.17
71239;BME280;61342;51.442;7.370;2023-03-19T02:54:17;99598.75;;;13.04;76.85
71239;BME280;61342;51.442;7.370;2023-03-19T02:55:18;99610.28;;;13.04;76.41
71239;BME280;61342;51.442;7.370;2023-03-19T02:56:18;99605.84;;;13.03;76.55
71239;BME280;61342;51.442;7.370;2023-03-19T02:57:18;99604.53;;;13.04;76.57
71239;BME280;61342;51.442;7.370;2023-03-19T02:58:19;99612.38;;;13.04;76.73
71239;BME280;61342;51.442;7.370;2023-03-19T02:59:20;99602.22;;;13.03;76.95
71239;BME280;61342;51.442;7.370;2023-03-19T03:00:20;99607.19;;;13.02;76.81
71239;BME280;61342;51.442;7.370;2023-03-19T03:01:21;99600.66;;;13.02;76.74
71239;BME280;61342;51.442;7.370;2023-03-19T03:02:28;99607.19;;;13.02;76.70
71239;BME280;61342;51.442;7.370;2023-03-19T03:03:29;99597.75;;;13.02;76.54
71239;BME280;61342;51.442;7.370;2023-03-19T03:04:33;99594.88;;;13.02;76.78
71239;BME280;61342;51.442;7.370;2023-03-19T03:05:46;99602.53;;;12.99;76.49
71239;BME280;61342;51.442;7.370;2023-03-19T03:06:47;99607.19;;;13.02;77.03
71239;BME280;61342;51.442;7.370;2023-03-19T03:07:47;99604.09;;;13.00;77.00
71239;BME280;61342;51.442;7.370;2023-03-19T03:08:48;99609.88;;;13.00;76.62
71239;BME280;61342;51.442;7.370;2023-03-19T03:09:49;99606.41;;;13.02;76.74
71239;BME280;61342;51.442;7.370;2023-03-19T03:10:49;99600.44;;;13.00;76.85
71239;BME280;61342;51.442;7.370;2023-03-19T03:11:49;99604.31;;;13.02;76.77
71239;BME280;61342;51.442;7.370;2023-03-19T03:12:50;99610.63;;;13.01;76.83
71239;BME280;61342;51.442;7.370;2023-03-19T03:13:50;99604.88;;;13.01;76.85
71239;BME280;61342;51.442;7.370;2023-03-19T03:14:51;99607.00;;;13.00;76.98
71239;BME280;61342;51.442;7.370;2023-03-19T03:15:51;99606.41;;;13.02;77.02
71239;BME280;61342;51.442;7.370;2023-03-19T03:16:52;99604.09;;;13.00;77.00
71239;BME280;61342;51.442;7.370;2023-03-19T03:17:52;99607.19;;;13.02;76.80
71239;BME280;61342;51.442;7.370;2023-03-19T03:18:53;99610.88;;;13.03;76.74
71239;BME280;61342;51.442;7.370;2023-03-19T03:19:53;99599.88;;;13.01;77.11
71239;BME280;61342;51.442;7.370;2023-03-19T03:20:53;99607.75;;;13.01;77.02
71239;BME280;61342;51.442;7.370;2023-03-19T03:21:54;99608.53;;;13.01;77.22
71239;BME280;61342;51.442;7.370;2023-03-19T03:22:54;99610.06;;;13.02;77.26
71239;BME280;61342;51.442;7.370;2023-03-19T03:23:55;99598.91;;;12.99;77.24
71239;BME280;61342;51.442;7.370;2023-03-19T03:24:55;99599.88;;;13.01;77.44
71239;BME280;61342;51.442;7.370;2023-03-19T03:25:56;99602.78;;;13.01;77.33
71239;BME280;61342;51.442;7.370;2023-03-19T03:26:56;99610.63;;;13.01;77.21
71239;BME280;61342;51.442;7.370;2023-03-19T03:27:56;99609.88;;;13.00;77.57
71239;BME280;61342;51.442;7.370;2023-03-19T03:28:56;99612.97;;;13.02;77.50
71239;BME280;61342;51.442;7.370;2023-03-19T03:29:57;99606.41;;;13.02;77.51
71239;BME280;61342;51.442;7.370;2023-03-19T03:30:58;99614.50;;;13.03;77.50
71239;BME280;61342;51.442;7.370;2023-03-19T03:31:59;99603.31;;;13.00;77.54
71239;BME280;61342;51.442;7.370;2023-03-19T03:32:59;99607.97;;;13.03;77.51
71239;BME280;61342;51.442;7.370;2023-03-19T03:34:00;99605.09;;;13.03;77.48
71239;BME280;61342;51.442;7.370;2023-03-19T03:35:01;99609.50;;;13.04;77.60
71239;BME280;61342;51.442;7.370;2023-03-19T03:36:03;99606.41;;;13.02;77.40
71239;BME280;61342;51.442;7.370;2023-03-19T03:37:03;99607.19;;;13.02;77.49
71239;BME280;61342;51.442;7.370;2023-03-19T03:38:04;99599.88;;;13.01;77.65
71239;BME280;61342;51.442;7.370;2023-03-19T03:39:05;99610.88;;;13.03;77.54
71239;BME280;61342;51.442;7.370;2023-03-19T03:40:06;99607.19;;;13.02;77.34
71239;BME280;61342;51.442;7.370;2023-03-19T03:41:07;99612.97;;;13.02;77.77
71239;BME280;61342;51.442;7.370;2023-03-19T03:42:07;99608.75;;;13.03;77.54
71239;BME280;61342;51.442;7.370;2023-03-19T03:43:08;99608.75;;;13.03;77.85
71239;BME280;61342;51.442;7.370;2023-03-19T03:44:09;99610.06;;;13.02;77.81
71239;BME280;61342;51.442;7.370;2023-03-19T03:45:10;99617.41;;;13.03;77.68
71239;BME280;61342;51.442;7.370;2023-03-19T03:46:11;99616.63;;;13.03;78.07
71239;BME280;61342;51.442;7.370;2023-03-19T03:47:12;99615.06;;;13.02;77.96
71239;BME280;61342;51.442;7.370;2023-03-19T03:48:13;99598.25;;;12.93;77.73
71239;BME280;61342;51.442;7.370;2023-03-19T03:49:14;99611.44;;;13.01;78.18
71239;BME280;61342;51.442;7.370;2023-03-19T03:50:14;99599.47;;;12.97;77.84
71239;BME280;61342;51.442;7.370;2023-03-19T03:51:16;99617.41;;;13.03;77.98
71239;BME280;61342;51.442;7.370;2023-03-19T03:52:16;99614.50;;;13.03;78.25
71239;BME280;61342;51.442;7.370;2023-03-19T03:53:16;99618.94;;;13.04;78.39
71239;BME280;61342;51.442;7.370;2023-03-19T03:54:17;99610.63;;;13.01;78.26
71239;BME280;61342;51.442;7.370;2023-03-19T03:55:17;99610.06;;;13.02;77.99
71239;BME280;61342;51.442;7.370;2023-03-19T03:56:18;99619.16;;;13.06;78.19
71239;BME280;61342;51.442;7.370;2023-03-19T03:57:18;99614.50;;;13.03;78.21
71239;BME280;61342;51.442;7.370;2023-03-19T03:58:18;99616.06;;;13.04;78.37
71239;BME280;61342;51.442;7.370;2023-03-19T03:59:19;99616.25;;;13.06;78.17
71239;BME280;61342;51.442;7.370;2023-03-19T04:00:19;99622.03;;;13.06;78.28
71239;BME280;61342;51.442;7.370;2023-03-19T04:01:20;99617.63;;;13.05;78.06
71239;BME280;61342;51.442;7.370;2023-03-19T04:02:21;99620.50;;;13.05;78.70
71239;BME280;61342;51.442;7.370;2023-03-19T04:03:21;99619.16;;;13.06;79.00
71239;BME280;61342;51.442;7.370;2023-03-19T04:04:23;99621.28;;;13.06;78.59
71239;BME280;61342;51.442;7.370;2023-03-19T04:05:23;99617.63;;;13.05;78.98
71239;BME280;61342;51.442;7.370;2023-03-19T04:06:25;99620.50;;;13.05;78.71
71239;BME280;61342;51.442;7.370;2023-03-19T04:07:26;99613.94;;;13.05;78.98
71239;BME280;61342;51.442;7.370;2023-03-19T04:08:27;99614.94;;;13.07;79.00
71239;BME280;61342;51.442;7.370;2023-03-19T04:09:27;99615.50;;;13.06;79.18
71239;BME280;61342;51.442;7.370;2023-03-19T04:10:27;99613.38;;;13.06;78.77
71239;BME280;61342;51.442;7.370;2023-03-19T04:11:28;99617.81;;;13.07;79.02
71239;BME280;61342;51.442;7.370;2023-03-19T04:12:28;99616.06;;;13.04;79.14
71239;BME280;61342;51.442;7.370;2023-03-19T04:13:29;99615.69;;;13.08;79.07
71239;BME280;61342;51.442;7.370;2023-03-19T04:14:30;99610.28;;;13.04;78.66
71239;BME280;61342;51.442;7.370;2023-03-19T04:15:30;99610.88;;;13.03;78.60
71239;BME280;61342;51.442;7.370;2023-03-19T04:16:31;99624.91;;;13.06;79.07
71239;BME280;61342;51.442;7.370;2023-03-19T04:17:31;99616.06;;;13.04;78.90
71239;BME280;61342;51.442;7.370;2023-03-19T04:18:32;99613.19;;;13.04;79.04
71239;BME280;61342;51.442;7.370;2023-03-19T04:19:33;99617.81;;;13.07;78.86
71239;BME280;61342;51.442;7.370;2023-03-19T04:20:33;99624.16;;;13.06;79.15
71239;BME280;61342;51.442;7.370;2023-03-19T04:21:33;99626.47;;;13.07;79.34
71239;BME280;61342;51.442;7.370;2023-03-19T04:22:34;99628.03;;;13.08;79.05
71239;BME280;61342;51.442;7.370;2023-03-19T04:23:34;99627.81;;;13.06;79.14
71239;BME280;61342;51.442;7.370;2023-03-19T04:24:35;99626.47;;;13.07;79.14
71239;BME280;61342;51.442;7.370;2023-03-19T04:25:38;99626.28;;;13.05;79.12
71239;BME280;61342;51.442;7.370;2023-03-19T04:26:39;99630.69;;;13.06;79.10
71239;BME280;61342;51.442;7.370;2023-03-19T04:27:40;99620.28;;;13.03;79.09
71239;BME280;61342;51.442;7.370;2023-03-19T04:28:40;99629.38;;;13.07;79.14
71239;BME280;61342;51.442;7.370;2023-03-19T04:29:40;99627.25;;;13.08;78.92
71239;BME280;61342;51.442;7.370;2023-03-19T04:30:41;99632.25;;;13.07;79.12
71239;BME280;61342;51.442;7.370;2023-03-19T04:31:42;99633.81;;;13.08;79.26
71239;BME280;61342;51.442;7.370;2023-03-19T04:32:42;99624.16;;;13.06;79.03
71239;BME280;61342;51.442;7.370;2023-03-19T04:33:43;99639.56;;;13.08;79.15
71239;BME280;61342;51.442;7.370;2023-03-19T04:34:44;99631.69;;;13.09;79.11
71239;BME280;61342;51.442;7.370;2023-03-19T04:35:47;99627.03;;;13.06;79.04
71239;BME280;61342;51.442;7.370;2023-03-19T04:36:47;99639.78;;;13.10;78.90
71239;BME280;61342;51.442;7.370;2023-03-19T04:37:48;99633.81;;;13.08;79.19
71239;BME280;61342;51.442;7.370;2023-03-19T04:38:48;99625.91;;;13.09;79.15
71239;BME280;61342;51.442;7.370;2023-03-19T04:39:48;99621.47;;;13.08;79.05
71239;BME280;61342;51.442;7.370;2023-03-19T04:40:51;99633.81;;;13.08;78.76
71239;BME280;61342;51.442;7.370;2023-03-19T04:41:51;99639.56;;;13.08;79.26
71239;BME280;61342;51.442;7.370;2023-03-19T04:42:52;99632.81;;;13.06;79.11
71239;BME280;61342;51.442;7.370;2023-03-19T04:43:52;99644.56;;;13.08;78.87
71239;BME280;61342;51.442;7.370;2023-03-19T04:44:52;99637.81;;;13.05;79.20
71239;BME280;61342;51.442;7.370;2023-03-19T04:45:53;99648.78;;;13.07;79.10
71239;BME280;61342;51.442;7.370;2023-03-19T04:46:53;99645.13;;;13.06;79.29
71239;BME280;61342;51.442;7.370;2023-03-19T04:47:54;99647.25;;;13.06;79.05
71239;BME280;61342;51.442;7.370;2023-03-19T04:48:55;99651.13;;;13.08;79.44
71239;BME280;61342;51.442;7.370;2023-03-19T04:49:55;99649.56;;;13.07;79.03
71239;BME280;61342;51.442;7.370;2023-03-19T04:50:56;99648.00;;;13.06;79.43
71239;BME280;61342;51.442;7.370;2023-03-19T04:51:57;99650.31;;;13.08;79.17
71239;BME280;61342;51.442;7.370;2023-03-19T04:52:57;99647.25;;;13.06;79.07
71239;BME280;61342;51.442;7.370;2023-03-19T04:53:57;99652.09;;;13.11;79.31
71239;BME280;61342;51.442;7.370;2023-03-19T04:54:58;99652.31;;;13.13;79.08
71239;BME280;61342;51.442;7.370;2023-03-19T04:55:59;99654.19;;;13.10;79.18
71239;BME280;61342;51.442;7.370;2023-03-19T04:56:59;99653.44;;;13.10;79.04
71239;BME280;61342;51.442;7.370;2023-03-19T04:58:00;99653.09;;;13.13;79.15
71239;BME280;61342;51.442;7.370;2023-03-19T04:59:00;99661.75;;;13.13;79.02
71239;BME280;61342;51.442;7.370;2023-03-19T05:00:00;99661.53;;;13.11;78.95
71239;BME280;61342;51.442;7.370;2023-03-19T05:01:01;99658.88;;;13.13;78.85
71239;BME280;61342;51.442;7.370;2023-03-19T05:02:01;99662.53;;;13.14;79.10
71239;BME280;61342;51.442;7.370;2023-03-19T05:03:01;99641.03;;;13.02;79.04
71239;BME280;61342;51.442;7.370;2023-03-19T05:04:02;99663.28;;;13.14;79.12
71239;BME280;61342;51.442;7.370;2023-03-19T05:05:02;99662.31;;;13.12;78.88
71239;BME280;61342;51.442;7.370;2023-03-19T05:06:03;99667.72;;;13.15;79.09
71239;BME280;61342;51.442;7.370;2023-03-19T05:07:03;99665.41;;;13.14;78.99
71239;BME280;61342;51.442;7.370;2023-03-19T05:08:04;99667.72;;;13.15;79.00
71239;BME280;61342;51.442;7.370;2023-03-19T05:09:05;99668.53;;;13.16;78.92
71239;BME280;61342;51.442;7.370;2023-03-19T05:10:07;99674.81;;;13.14;78.85
71239;BME280;61342;51.442;7.370;2023-03-19T05:11:08;99671.94;;;13.14;79.13
71239;BME280;61342;51.442;7.370;2023-03-19T05:12:09;99677.72;;;13.14;78.75
71239;BME280;61342;51.442;7.370;2023-03-19T05:13:10;99666.53;;;13.11;78.88
71239;BME280;61342;51.442;7.370;2023-03-19T05:14:11;99681.97;;;13.13;78.94
71239;BME280;61342;51.442;7.370;2023-03-19T05:15:11;99668.44;;;13.08;78.79
71239;BME280;61342;51.442;7.370;2023-03-19T05:16:11;99677.28;;;13.10;79.07
71239;BME280;61342;51.442;7.370;2023-03-19T05:17:12;99666.31;;;13.09;78.66
71239;BME280;61342;51.442;7.370;2023-03-19T05:18:14;99675.75;;;13.09;78.66
71239;BME280;61342;51.442;7.370;2023-03-19T05:19:15;99674.19;;;13.08;78.72
71239;BME280;61342;51.442;7.370;2023-03-19T05:20:16;99671.31;;;13.08;78.98
71239;BME280;61342;51.442;7.370;2023-03-19T05:21:17;99676.28;;;13.08;79.05
71239;BME280;61342;51.442;7.370;2023-03-19T05:22:18;99671.09;;;13.06;79.19
71239;BME280;61342;51.442;7.370;2023-03-19T05:23:19;99672.44;;;13.05;79.37
71239;BME280;61342;51.442;7.370;2023-03-19T05:24:19;99671.88;;;13.07;79.01
71239;BME280;61342;51.442;7.370;2023-03-19T05:25:20;99667.56;;;13.00;78.99
71239;BME280;61342;51.442;7.370;2023-03-19T05:26:20;99661.00;;;13.00;79.32
71239;BME280;61342;51.442;7.370;2023-03-19T05:27:21;99655.63;;;12.96;79.22